createdAt,value
2022-08-25T00:01:36.283Z,100942.31
2022-08-25T00:04:02.921Z,100937.47
2022-08-25T00:06:29.279Z,100939.56
2022-08-25T00:11:49.303Z,100935.59
2022-08-25T00:14:16.564Z,100926.34
2022-08-25T00:16:42.961Z,100928.28
2022-08-25T00:19:10.273Z,100927.44
2022-08-25T00:21:37.500Z,100926.41
2022-08-25T00:26:47.912Z,100913.31
2022-08-25T00:29:15.144Z,100914.44
2022-08-25T00:31:41.582Z,100920.06
2022-08-25T00:34:07.966Z,100917.31
2022-08-25T00:36:34.342Z,100917.03
2022-08-25T00:39:00.701Z,100913.72
2022-08-25T00:41:27.152Z,100913.72
2022-08-25T00:43:53.531Z,100903.25
2022-08-25T00:46:20.930Z,100910.50
2022-08-25T00:48:47.357Z,100909.41
2022-08-25T00:51:14.568Z,100915.47
2022-08-25T00:53:41.812Z,100918.63
2022-08-25T00:56:09.055Z,100911.91
2022-08-25T00:58:35.436Z,100911.66
2022-08-25T01:01:01.850Z,100896.06
2022-08-25T01:03:32.957Z,100897.56
2022-08-25T01:05:59.748Z,100894.41
2022-08-25T01:08:26.122Z,100904.34
2022-08-25T01:10:55.472Z,100896.00
2022-08-25T01:13:21.845Z,100899.59
2022-08-25T01:15:48.259Z,100903.25
2022-08-25T01:18:15.526Z,100899.59
2022-08-25T01:20:41.917Z,100902.38
2022-08-25T01:23:09.143Z,100898.44
2022-08-25T01:25:35.503Z,100901.97
2022-08-25T01:28:01.956Z,100901.97
2022-08-25T01:30:28.381Z,100900.44
2022-08-25T01:32:54.754Z,100903.56
2022-08-25T01:35:21.114Z,100893.19
2022-08-25T01:37:48.330Z,100895.56
2022-08-25T01:40:15.623Z,100902.75
2022-08-25T01:42:42.935Z,100897.56
2022-08-25T01:45:10.176Z,100900.00
2022-08-25T01:47:36.539Z,100895.56
2022-08-25T01:50:03.793Z,100897.28
2022-08-25T01:52:33.310Z,100898.88
2022-08-25T01:55:00.565Z,100900.31
2022-08-25T01:57:27.809Z,100903.09
2022-08-25T01:59:57.811Z,100896.72
2022-08-25T02:02:24.234Z,100894.41
2022-08-25T02:04:55.474Z,100895.25
2022-08-25T02:07:21.985Z,100895.22
2022-08-25T02:09:48.458Z,100893.13
2022-08-25T02:15:08.780Z,100887.81
2022-08-25T02:17:35.236Z,100885.00
2022-08-25T02:20:01.676Z,100881.78
2022-08-25T02:22:28.150Z,100883.47
2022-08-25T02:24:54.659Z,100884.00
2022-08-25T02:30:06.009Z,100884.66
2022-08-25T02:32:33.271Z,100877.44
2022-08-25T02:35:01.583Z,100879.91
2022-08-25T02:37:28.086Z,100880.75
2022-08-25T02:39:54.622Z,100880.69
2022-08-25T02:45:07.122Z,100879.91
2022-08-25T02:47:35.452Z,100879.53
2022-08-25T02:50:01.972Z,100872.72
2022-08-25T02:52:28.431Z,100874.34
2022-08-25T02:54:55.758Z,100876.44
2022-08-25T03:00:17.535Z,100882.91
2022-08-25T03:02:46.085Z,100877.19
2022-08-25T03:05:12.522Z,100875.09
2022-08-25T03:07:39.039Z,100882.53
2022-08-25T03:10:07.150Z,100878.28
2022-08-25T03:15:21.797Z,100891.59
2022-08-25T03:17:48.245Z,100895.25
2022-08-25T03:20:16.976Z,100893.31
2022-08-25T03:22:43.428Z,100885.22
2022-08-25T03:25:10.713Z,100879.66
2022-08-25T03:30:22.457Z,100871.38
2022-08-25T03:32:48.930Z,100878.69
2022-08-25T03:35:15.368Z,100874.06
2022-08-25T03:37:41.826Z,100876.38
2022-08-25T03:40:08.287Z,100879.19
2022-08-25T03:45:36.755Z,100884.56
2022-08-25T03:48:03.324Z,100885.41
2022-08-25T03:50:29.781Z,100884.56
2022-08-25T03:52:56.224Z,100881.31
2022-08-25T03:55:22.669Z,100873.22
2022-08-25T04:00:43.797Z,100883.19
2022-08-25T04:03:10.328Z,100878.81
2022-08-25T04:05:37.643Z,100881.69
2022-08-25T04:08:05.084Z,100883.94
2022-08-25T04:10:32.550Z,100881.25
2022-08-25T04:15:43.842Z,100882.53
2022-08-25T04:18:11.220Z,100882.34
2022-08-25T04:20:39.845Z,100875.47
2022-08-25T04:23:09.478Z,100873.16
2022-08-25T04:25:36.753Z,100874.72
2022-08-25T04:30:51.869Z,100872.72
2022-08-25T04:33:19.444Z,100867.47
2022-08-25T04:35:45.889Z,100869.19
2022-08-25T04:38:12.342Z,100864.66
2022-08-25T04:40:38.803Z,100864.25
2022-08-25T04:46:00.244Z,100872.53
2022-08-25T04:48:27.682Z,100871.16
2022-08-25T04:50:54.126Z,100869.28
2022-08-25T04:53:22.150Z,100862.44
2022-08-25T04:55:49.532Z,100867.84
2022-08-25T05:01:00.057Z,100858.50
2022-08-25T05:03:26.626Z,100854.84
2022-08-25T05:05:53.121Z,100857.69
2022-08-25T05:08:20.645Z,100856.47
2022-08-25T05:10:47.509Z,100861.22
2022-08-25T05:16:00.261Z,100856.97
2022-08-25T05:18:27.044Z,100858.94
2022-08-25T05:20:54.420Z,100863.19
2022-08-25T05:23:21.842Z,100869.72
2022-08-25T05:25:48.567Z,100863.84
2022-08-25T05:31:11.056Z,100866.63
2022-08-25T05:33:38.483Z,100861.25
2022-08-25T05:36:05.884Z,100858.66
2022-08-25T05:38:32.389Z,100858.19
2022-08-25T05:40:59.778Z,100856.06
2022-08-25T05:46:21.549Z,100853.25
2022-08-25T05:48:48.079Z,100853.84
2022-08-25T05:51:15.486Z,100856.88
2022-08-25T05:53:42.033Z,100861.28
2022-08-25T05:56:08.540Z,100854.94
2022-08-25T06:01:20.006Z,100869.25
2022-08-25T06:03:47.485Z,100858.47
2022-08-25T06:06:14.958Z,100858.31
2022-08-25T06:08:42.340Z,100853.47
2022-08-25T06:11:08.845Z,100862.22
2022-08-25T06:16:19.244Z,100858.44
2022-08-25T06:18:46.671Z,100869.19
2022-08-25T06:21:13.199Z,100858.22
2022-08-25T06:23:40.645Z,100869.66
2022-08-25T06:26:07.144Z,100867.34
2022-08-25T06:31:28.662Z,100869.34
2022-08-25T06:33:55.234Z,100864.66
2022-08-25T06:36:22.634Z,100867.53
2022-08-25T06:38:50.007Z,100865.94
2022-08-25T06:41:17.387Z,100870.22
2022-08-25T06:46:35.759Z,100871.41
2022-08-25T06:49:03.128Z,100869.75
2022-08-25T06:51:29.885Z,100864.22
2022-08-25T06:53:57.278Z,100874.59
2022-08-25T06:56:23.993Z,100870.72
2022-08-25T07:01:35.599Z,100869.88
2022-08-25T07:04:02.156Z,100869.88
2022-08-25T07:06:28.789Z,100876.59
2022-08-25T07:08:56.222Z,100876.88
2022-08-25T07:11:23.656Z,100884.78
2022-08-25T07:16:34.470Z,100878.72
2022-08-25T07:19:01.076Z,100886.81
2022-08-25T07:21:32.629Z,100884.84
2022-08-25T07:24:01.005Z,100886.16
2022-08-25T07:26:43.674Z,100893.00
2022-08-25T07:32:04.993Z,100889.75
2022-08-25T07:34:31.789Z,100891.69
2022-08-25T07:36:59.213Z,100892.06
2022-08-25T07:39:29.024Z,100895.13
2022-08-25T07:41:55.699Z,100892.69
2022-08-25T07:47:08.187Z,100890.47
2022-08-25T07:49:36.073Z,100885.91
2022-08-25T07:52:07.235Z,100879.78
2022-08-25T07:54:37.969Z,100882.88
2022-08-25T07:57:04.934Z,100881.22
2022-08-25T08:02:19.027Z,100887.94
2022-08-25T08:04:46.790Z,100887.03
2022-08-25T08:07:13.246Z,100881.81
2022-08-25T08:09:40.520Z,100883.38
2022-08-25T08:12:06.989Z,100887.59
2022-08-25T08:17:29.267Z,100889.63
2022-08-25T08:19:55.712Z,100886.00
2022-08-25T08:22:22.650Z,100889.91
2022-08-25T08:24:54.524Z,100885.31
2022-08-25T08:27:22.056Z,100895.44
2022-08-25T08:33:08.657Z,100885.31
2022-08-25T08:35:30.843Z,100891.75
2022-08-25T08:37:58.090Z,100885.69
2022-08-25T08:40:24.736Z,100891.31
2022-08-25T08:42:51.266Z,100889.38
2022-08-25T08:48:02.302Z,100887.34
2022-08-25T08:50:32.952Z,100885.75
2022-08-25T08:53:00.571Z,100883.75
2022-08-25T08:55:27.810Z,100895.00
2022-08-25T08:57:55.668Z,100885.31
2022-08-25T09:03:06.294Z,100879.72
2022-08-25T09:05:34.469Z,100878.50
2022-08-25T09:08:05.819Z,100876.91
2022-08-25T09:10:33.198Z,100885.31
2022-08-25T09:13:00.434Z,100884.53
2022-08-25T09:18:12.123Z,100872.53
2022-08-25T09:20:39.618Z,100871.66
2022-08-25T09:23:06.876Z,100880.50
2022-08-25T09:25:52.272Z,100869.28
2022-08-25T09:28:20.144Z,100873.22
2022-08-25T09:33:31.452Z,100872.44
2022-08-25T09:36:01.956Z,100870.59
2022-08-25T09:38:34.377Z,100861.00
2022-08-25T09:41:01.639Z,100865.06
2022-08-25T09:43:28.876Z,100861.91
2022-08-25T09:48:56.038Z,100861.91
2022-08-25T09:51:24.310Z,100850.66
2022-08-25T09:53:51.945Z,100853.47
2022-08-25T09:56:19.234Z,100854.25
2022-08-25T09:58:45.719Z,100843.03
2022-08-25T10:04:06.416Z,100840.22
2022-08-25T10:06:40.494Z,100836.44
2022-08-25T10:09:08.950Z,100838.09
2022-08-25T10:11:35.412Z,100840.13
2022-08-25T10:14:01.917Z,100827.28
2022-08-25T10:19:24.701Z,100823.69
2022-08-25T10:21:51.193Z,100808.88
2022-08-25T10:24:17.599Z,100816.06
2022-08-25T10:26:44.090Z,100809.66
2022-08-25T10:29:11.345Z,100804.81
2022-08-25T10:34:22.353Z,100808.44
2022-08-25T10:36:51.142Z,100798.00
2022-08-25T10:39:34.204Z,100802.00
2022-08-25T10:42:03.062Z,100803.59
2022-08-25T10:44:31.641Z,100795.97
2022-08-25T10:49:42.320Z,100792.72
2022-08-25T10:52:08.859Z,100781.91
2022-08-25T10:54:37.125Z,100788.69
2022-08-25T10:57:03.578Z,100784.63
2022-08-25T10:59:34.645Z,100776.22
2022-08-25T11:04:47.286Z,100771.41
2022-08-25T11:07:15.857Z,100766.56
2022-08-25T11:09:44.740Z,100768.94
2022-08-25T11:12:11.461Z,100759.72
2022-08-25T11:14:39.800Z,100762.53
2022-08-25T11:20:01.056Z,100759.28
2022-08-25T11:22:29.396Z,100761.28
2022-08-25T11:24:56.616Z,100748.84
2022-08-25T11:27:24.527Z,100757.28
2022-08-25T11:29:51.896Z,100755.25
2022-08-25T11:35:13.406Z,100746.81
2022-08-25T11:37:40.667Z,100754.03
2022-08-25T11:40:08.740Z,100752.00
2022-08-25T11:42:36.239Z,100749.97
2022-08-25T11:45:02.669Z,100747.16
2022-08-25T11:50:13.934Z,100751.56
2022-08-25T11:52:40.453Z,100747.97
2022-08-25T11:55:08.106Z,100747.50
2022-08-25T11:57:36.256Z,100751.91
2022-08-25T12:00:02.776Z,100748.31
2022-08-25T12:05:13.565Z,100748.31
2022-08-25T12:07:40.091Z,100745.50
2022-08-25T12:10:09.250Z,100749.09
2022-08-25T12:12:39.240Z,100746.72
2022-08-25T12:15:07.606Z,100748.31
2022-08-25T12:20:18.064Z,100750.31
2022-08-25T12:22:44.475Z,100739.88
2022-08-25T12:25:11.714Z,100739.06
2022-08-25T12:27:38.808Z,100742.69
2022-08-25T12:30:05.328Z,100739.06
2022-08-25T12:35:26.400Z,100732.66
2022-08-25T12:37:56.186Z,100739.06
2022-08-25T12:40:24.604Z,100732.66
2022-08-25T12:42:51.076Z,100736.25
2022-08-25T12:45:17.553Z,100731.88
2022-08-25T12:50:28.022Z,100729.88
2022-08-25T12:52:56.175Z,100731.88
2022-08-25T12:55:22.677Z,100726.28
2022-08-25T12:57:49.928Z,100717.06
2022-08-25T13:00:16.478Z,100724.25
2022-08-25T13:05:33.743Z,100727.06
2022-08-25T13:08:00.342Z,100727.06
2022-08-25T13:10:28.841Z,100717.84
2022-08-25T13:12:55.273Z,100717.06
2022-08-25T13:15:21.687Z,100708.63
2022-08-25T13:20:44.004Z,100703.78
2022-08-25T13:23:11.473Z,100704.56
2022-08-25T13:25:38.888Z,100708.44
2022-08-25T13:28:05.518Z,100708.34
2022-08-25T13:30:33.406Z,100708.34
2022-08-25T13:35:53.332Z,100711.41
2022-08-25T13:38:20.610Z,100706.91
2022-08-25T13:40:47.080Z,100714.09
2022-08-25T13:43:15.056Z,100706.00
2022-08-25T13:45:41.870Z,100709.63
2022-08-25T13:51:02.286Z,100701.22
2022-08-25T13:53:30.700Z,100706.72
2022-08-25T13:55:58.235Z,100698.72
2022-08-25T13:58:44.588Z,100701.09
2022-08-25T14:01:33.922Z,100697.38
2022-08-25T14:06:42.220Z,100701.16
2022-08-25T14:09:09.638Z,100700.56
2022-08-25T14:11:36.379Z,100690.41
2022-08-25T14:14:06.626Z,100692.78
2022-08-25T14:16:34.989Z,100689.28
2022-08-25T14:21:49.573Z,100689.09
2022-08-25T14:24:16.219Z,100689.56
2022-08-25T14:26:53.962Z,100693.91
2022-08-25T14:29:21.141Z,100686.50
2022-08-25T14:31:47.718Z,100680.53
2022-08-25T14:36:59.270Z,100682.41
2022-08-25T14:39:26.260Z,100675.09
2022-08-25T14:41:53.333Z,100677.94
2022-08-25T14:44:20.492Z,100677.47
2022-08-25T14:46:47.751Z,100672.81
2022-08-25T14:52:00.005Z,100680.75
2022-08-25T14:54:26.689Z,100676.53
2022-08-25T14:56:53.300Z,100674.53
2022-08-25T14:59:19.742Z,100669.28
2022-08-25T15:01:46.307Z,100673.50
2022-08-25T15:07:05.733Z,100679.72
2022-08-25T15:09:33.628Z,100680.97
2022-08-25T15:12:01.115Z,100677.66
2022-08-25T15:14:33.362Z,100674.81
2022-08-25T15:17:00.881Z,100679.91
2022-08-25T15:22:12.750Z,100675.72
2022-08-25T15:24:39.221Z,100672.91
2022-08-25T15:27:05.990Z,100676.59
2022-08-25T15:29:36.626Z,100673.34
2022-08-25T15:32:03.145Z,100673.44
2022-08-25T15:37:24.527Z,100679.06
2022-08-25T15:39:50.986Z,100670.63
2022-08-25T15:42:20.210Z,100665.47
2022-08-25T15:44:53.541Z,100673.13
2022-08-25T15:47:20.213Z,100665.91
2022-08-25T15:52:48.508Z,100669.97
2022-08-25T15:55:15.234Z,100670.75
2022-08-25T15:57:42.261Z,100671.19
2022-08-25T16:00:08.815Z,100666.78
2022-08-25T16:02:38.239Z,100667.16
2022-08-25T16:07:51.580Z,100671.19
2022-08-25T16:10:19.152Z,100669.16
2022-08-25T16:12:49.122Z,100668.38
2022-08-25T16:15:15.580Z,100665.56
2022-08-25T16:17:44.355Z,100669.16
2022-08-25T16:22:58.861Z,100665.56
2022-08-25T16:25:26.440Z,100665.56
2022-08-25T16:27:53.970Z,100671.19
2022-08-25T16:30:21.241Z,100664.78
2022-08-25T16:32:47.656Z,100659.94
2022-08-25T16:38:12.399Z,100659.94
2022-08-25T16:40:38.860Z,100661.97
2022-08-25T16:43:07.628Z,100661.53
2022-08-25T16:45:34.580Z,100661.97
2022-08-25T16:48:01.823Z,100661.97
2022-08-25T16:53:23.949Z,100664.34
2022-08-25T16:55:51.322Z,100671.97
2022-08-25T16:58:18.680Z,100671.19
2022-08-25T17:00:45.766Z,100671.53
2022-08-25T17:03:12.318Z,100669.50
2022-08-25T17:08:22.356Z,100673.56
2022-08-25T17:10:49.672Z,100673.56
2022-08-25T17:13:16.927Z,100675.59
2022-08-25T17:15:43.692Z,100678.41
2022-08-25T17:18:12.713Z,100667.50
2022-08-25T17:23:24.807Z,100669.97
2022-08-25T17:25:52.436Z,100665.91
2022-08-25T17:28:18.798Z,100672.31
2022-08-25T17:30:45.183Z,100669.97
2022-08-25T17:33:14.349Z,100671.53
2022-08-25T17:38:35.302Z,100677.16
2022-08-25T17:41:02.541Z,100682.00
2022-08-25T17:43:32.470Z,100679.63
2022-08-25T17:45:58.876Z,100678.84
2022-08-25T17:48:25.251Z,100690.09
2022-08-25T17:53:47.600Z,100696.94
2022-08-25T17:56:15.073Z,100692.91
2022-08-25T17:58:41.422Z,100700.19
2022-08-25T18:01:07.891Z,100703.91
2022-08-25T18:03:34.278Z,100695.94
2022-08-25T18:08:52.382Z,100699.53
2022-08-25T18:11:22.789Z,100701.03
2022-08-25T18:13:50.438Z,100698.81
2022-08-25T18:16:19.801Z,100705.09
2022-08-25T18:18:46.248Z,100695.47
2022-08-25T18:23:56.660Z,100701.19
2022-08-25T18:26:25.433Z,100707.50
2022-08-25T18:28:52.029Z,100699.59
2022-08-25T18:31:19.892Z,100703.00
2022-08-25T18:33:46.570Z,100698.16
2022-08-25T18:39:07.694Z,100700.75
2022-08-25T18:41:37.761Z,100699.47
2022-08-25T18:44:07.358Z,100697.81
2022-08-25T18:46:34.698Z,100709.28
2022-08-25T18:49:05.882Z,100711.91
2022-08-25T18:54:23.171Z,100710.28
2022-08-25T18:56:50.453Z,100713.16
2022-08-25T18:59:20.056Z,100723.72
2022-08-25T19:01:50.472Z,100712.59
2022-08-25T19:04:17.050Z,100714.84
2022-08-25T19:09:29.741Z,100711.69
2022-08-25T19:11:57.165Z,100709.22
2022-08-25T19:14:23.651Z,100709.13
2022-08-25T19:16:53.752Z,100709.69
2022-08-25T19:19:20.121Z,100706.53
2022-08-25T19:24:30.623Z,100708.97
2022-08-25T19:26:57.022Z,100715.50
2022-08-25T19:29:24.377Z,100704.69
2022-08-25T19:31:51.124Z,100710.44
2022-08-25T19:34:17.592Z,100702.28
2022-08-25T19:39:40.997Z,100697.69
2022-08-25T19:42:08.624Z,100695.22
2022-08-25T19:44:55.105Z,100697.81
2022-08-25T19:47:24.406Z,100695.00
2022-08-25T19:49:50.909Z,100697.69
2022-08-25T19:55:14.156Z,100693.16
2022-08-25T19:57:43.357Z,100695.84
2022-08-25T20:00:11.730Z,100698.75
2022-08-25T20:02:40.926Z,100691.31
2022-08-25T20:05:08.254Z,100700.34
2022-08-25T20:10:18.833Z,100701.97
2022-08-25T20:12:47.129Z,100703.03
2022-08-25T20:15:14.484Z,100698.38
2022-08-25T20:17:43.246Z,100700.75
2022-08-25T20:20:12.370Z,100703.03
2022-08-25T20:25:27.484Z,100695.66
2022-08-25T20:28:04.083Z,100691.69
2022-08-25T20:30:30.635Z,100697.50
2022-08-25T20:32:59.018Z,100693.56
2022-08-25T20:35:26.571Z,100700.13
2022-08-25T20:40:40.378Z,100697.59
2022-08-25T20:43:10.512Z,100699.59
2022-08-25T20:45:38.746Z,100705.03
2022-08-25T20:48:05.411Z,100705.31
2022-08-25T20:50:32.942Z,100701.34
2022-08-25T20:55:45.450Z,100710.13
2022-08-25T20:58:14.198Z,100700.03
2022-08-25T21:00:40.839Z,100696.00
2022-08-25T21:03:07.352Z,100697.75
2022-08-25T21:05:34.264Z,100699.44
2022-08-25T21:10:57.063Z,100699.25
2022-08-25T21:13:25.629Z,100697.16
2022-08-25T21:15:52.109Z,100701.47
2022-08-25T21:18:18.515Z,100698.22
2022-08-25T21:20:44.961Z,100689.94
2022-08-25T21:26:07.121Z,100701.53
2022-08-25T21:28:35.400Z,100704.63
2022-08-25T21:31:02.019Z,100697.16
2022-08-25T21:33:28.464Z,100700.09
2022-08-25T21:35:54.972Z,100697.38
2022-08-25T21:41:07.448Z,100699.00
2022-08-25T21:43:33.975Z,100696.19
2022-08-25T21:46:00.527Z,100702.56
2022-08-25T21:48:27.020Z,100705.09
2022-08-25T21:50:55.398Z,100706.63
2022-08-25T21:56:07.861Z,100698.09
2022-08-25T21:58:34.358Z,100694.84
2022-08-25T22:01:04.634Z,100699.06
2022-08-25T22:03:36.940Z,100698.81
2022-08-25T22:06:05.509Z,100695.38
2022-08-25T22:11:26.207Z,100697.41
2022-08-25T22:13:52.746Z,100693.69
2022-08-25T22:16:20.527Z,100688.44
2022-08-25T22:18:51.531Z,100689.19
2022-08-25T22:21:18.141Z,100685.66
2022-08-25T22:26:40.436Z,100681.81
2022-08-25T22:29:08.830Z,100685.66
2022-08-25T22:31:36.191Z,100675.66
2022-08-25T22:34:04.342Z,100673.34
2022-08-25T22:36:32.248Z,100666.59
2022-08-25T22:41:42.806Z,100663.38
2022-08-25T22:44:11.185Z,100662.69
2022-08-25T22:46:38.036Z,100666.91
2022-08-25T22:49:05.617Z,100660.63
2022-08-25T22:51:36.716Z,100664.78
2022-08-25T22:56:57.652Z,100662.31
2022-08-25T22:59:24.901Z,100652.63
2022-08-25T23:01:51.355Z,100652.94
2022-08-25T23:04:17.829Z,100655.41
2022-08-25T23:06:45.695Z,100652.75
2022-08-25T23:12:08.332Z,100653.06
2022-08-25T23:14:34.963Z,100652.75
2022-08-25T23:17:01.403Z,100656.34
2022-08-25T23:19:28.695Z,100654.25
2022-08-25T23:21:56.841Z,100651.56
2022-08-25T23:27:10.706Z,100656.38
2022-08-25T23:29:37.972Z,100653.06
2022-08-25T23:32:05.304Z,100645.66
2022-08-25T23:34:31.770Z,100651.03
2022-08-25T23:37:00.294Z,100647.88
2022-08-25T23:42:20.821Z,100656.34
2022-08-25T23:44:48.154Z,100655.16
2022-08-25T23:47:14.600Z,100654.06
2022-08-25T23:49:41.994Z,100655.34
2022-08-25T23:52:08.452Z,100645.69
2022-08-25T23:57:29.878Z,100634.56
2022-08-25T23:59:56.411Z,100643.88
